Time;durP1;ratioP1;P1;durP2;ratioP2;P2;SDS_P1;SDS_P2;PMS_P1;PMS_P2;Temp;Humidity;BMP_temperature;BMP_pressure;BME280_temperature;BME280_humidity;BME280_pressure;Samples;Min_cycle;Max_cycle;Signal;HPM_P1;HPM_P2
2021/12/16 00:01:49;;;;;;;9.95;5.90;;;8.10;99.90;;;;;;4995133;28;20045;-54
2021/12/16 00:07:22;;;;;;;14.05;5.38;;;8.10;99.90;;;;;;5011702;28;20054;-52
2021/12/16 00:09:58;;;;;;;7.93;4.68;;;8.10;99.90;;;;;;5011406;28;20049;-54
2021/12/16 00:34:16;;;;;;;12.65;6.97;;;8.10;99.90;;;;;;5011875;28;20463;-53
2021/12/16 00:36:44;;;;;;;11.23;6.68;;;8.10;99.90;;;;;;5011087;28;20088;-54
2021/12/16 00:39:20;;;;;;;11.40;5.68;;;8.10;99.90;;;;;;5010836;28;20503;-52
2021/12/16 00:41:50;;;;;;;11.32;6.20;;;8.10;99.90;;;;;;5011167;28;20037;-50
2021/12/16 00:46:59;;;;;;;16.02;7.70;;;8.10;99.90;;;;;;4991354;28;20447;-52
2021/12/16 00:54:44;;;;;;;17.35;6.95;;;8.10;99.90;;;;;;5010959;28;20041;-52
2021/12/16 00:57:13;;;;;;;17.10;7.05;;;8.00;99.90;;;;;;5010500;28;20469;-53
2021/12/16 00:59:42;;;;;;;13.43;6.63;;;8.00;99.90;;;;;;5009699;28;20436;-51
2021/12/16 01:51:24;;;;;;;22.27;10.15;;;8.00;99.90;;;;;;5010321;28;20088;-53
2021/12/16 01:54:42;;;;;;;21.02;10.43;;;8.00;99.90;;;;;;5003944;28;20054;-54
2021/12/16 01:57:19;;;;;;;14.40;9.37;;;8.00;99.90;;;;;;4990303;28;20030;-52
2021/12/16 01:59:50;;;;;;;20.48;9.98;;;8.00;99.90;;;;;;4987412;28;20489;-51
2021/12/16 02:05:16;;;;;;;18.67;11.23;;;8.00;99.90;;;;;;5009019;28;20026;-52
2021/12/16 02:08:14;;;;;;;21.37;10.70;;;8.00;99.90;;;;;;5006458;28;20030;-51
2021/12/16 02:10:44;;;;;;;21.10;11.27;;;8.00;99.90;;;;;;5009375;28;20117;-53
2021/12/16 02:27:25;;;;;;;20.67;10.55;;;8.00;99.90;;;;;;5009507;28;20037;-51
2021/12/16 02:32:32;;;;;;;26.48;12.25;;;7.90;99.90;;;;;;5009298;28;20373;-53
2021/12/16 02:37:22;;;;;;;27.33;11.93;;;7.90;99.90;;;;;;5013604;28;20038;-52
2021/12/16 02:39:49;;;;;;;29.83;12.63;;;7.80;99.90;;;;;;5013140;28;20022;-52
2021/12/16 02:42:20;;;;;;;20.70;11.30;;;7.90;99.90;;;;;;5013436;28;20045;-51
2021/12/16 02:50:23;;;;;;;23.13;11.00;;;7.90;99.90;;;;;;4994181;28;20158;-51
2021/12/16 02:52:48;;;;;;;26.15;12.38;;;7.80;99.90;;;;;;4993195;28;20057;-51
2021/12/16 02:55:17;;;;;;;23.27;12.82;;;7.90;99.90;;;;;;4992169;28;20050;-51
2021/12/16 02:57:59;;;;;;;27.67;13.02;;;7.80;99.90;;;;;;5012434;28;20029;-56
2021/12/16 03:00:25;;;;;;;22.85;12.65;;;7.90;99.90;;;;;;5013383;28;20018;-52
2021/12/16 03:02:52;;;;;;;24.35;12.10;;;7.90;99.90;;;;;;5012923;28;20018;-51
2021/12/16 03:05:20;;;;;;;23.02;13.52;;;7.90;99.90;;;;;;5012725;28;20484;-51
2021/12/16 03:07:46;;;;;;;33.08;14.40;;;7.90;99.90;;;;;;5010018;28;20025;-54
2021/12/16 03:13:02;;;;;;;30.08;13.50;;;7.80;99.90;;;;;;5012726;28;20033;-51
2021/12/16 03:21:04;;;;;;;29.58;13.80;;;7.80;99.90;;;;;;5012490;28;20026;-51
2021/12/16 03:37:00;;;;;;;31.80;14.95;;;7.90;99.90;;;;;;5011633;28;20034;-51
2021/12/16 03:39:29;;;;;;;28.40;14.05;;;7.90;99.90;;;;;;5010674;28;20061;-54
2021/12/16 03:41:55;;;;;;;28.75;14.55;;;7.90;99.90;;;;;;5011593;28;20376;-52
2021/12/16 03:44:27;;;;;;;29.63;15.23;;;7.90;99.90;;;;;;5011943;28;20093;-52
2021/12/16 03:46:53;;;;;;;35.25;15.65;;;7.90;99.90;;;;;;5011599;28;20026;-54
2021/12/16 03:49:24;;;;;;;31.45;15.23;;;7.90;99.90;;;;;;5011457;28;20568;-51
2021/12/16 03:51:55;;;;;;;32.30;15.73;;;7.80;99.90;;;;;;5011146;28;20105;-54
2021/12/16 03:54:30;;;;;;;35.28;15.75;;;7.90;99.90;;;;;;5011666;28;20496;-51
2021/12/16 03:56:59;;;;;;;31.95;15.73;;;7.90;99.90;;;;;;5011329;28;20109;-52
2021/12/16 03:59:29;;;;;;;26.88;16.23;;;7.90;99.90;;;;;;5010783;28;20099;-50
2021/12/16 04:01:57;;;;;;;31.30;15.30;;;7.90;99.90;;;;;;5011341;28;20034;-54
2021/12/16 04:04:23;;;;;;;34.22;17.42;;;7.90;99.90;;;;;;5011566;28;20033;-52
2021/12/16 04:06:49;;;;;;;37.83;17.23;;;7.90;99.90;;;;;;5011270;28;20033;-51
2021/12/16 04:09:16;;;;;;;34.75;18.23;;;7.90;99.90;;;;;;5011115;28;20145;-53
2021/12/16 04:11:51;;;;;;;36.78;16.92;;;7.90;99.90;;;;;;5011468;28;20044;-50
2021/12/16 04:14:18;;;;;;;41.17;18.38;;;7.90;99.90;;;;;;5011805;28;20037;-55
2021/12/16 04:16:48;;;;;;;37.25;17.05;;;7.90;99.90;;;;;;5010669;28;20111;-52
2021/12/16 04:19:18;;;;;;;39.25;18.73;;;7.90;99.90;;;;;;5010997;28;20800;-51
2021/12/16 04:21:48;;;;;;;38.50;17.85;;;7.90;99.90;;;;;;5010826;28;20044;-50
2021/12/16 04:24:14;;;;;;;39.58;18.48;;;7.90;99.90;;;;;;5011314;28;20041;-51
2021/12/16 04:26:43;;;;;;;39.53;18.40;;;7.90;99.90;;;;;;5010848;28;20038;-51
2021/12/16 04:29:09;;;;;;;37.95;17.98;;;7.90;99.90;;;;;;5010426;28;20042;-51
2021/12/16 04:31:37;;;;;;;38.67;18.02;;;7.90;99.90;;;;;;5010075;28;20038;-52
2021/12/16 04:34:04;;;;;;;39.58;19.35;;;7.90;99.90;;;;;;5010530;28;20463;-51
2021/12/16 04:36:30;;;;;;;45.50;17.92;;;7.90;99.90;;;;;;5008024;28;20080;-52
2021/12/16 04:38:56;;;;;;;34.65;18.50;;;7.90;99.90;;;;;;5008223;28;20040;-53
2021/12/16 04:41:22;;;;;;;42.88;19.60;;;7.90;99.90;;;;;;5008573;28;20042;-52
2021/12/16 04:43:52;;;;;;;41.80;19.48;;;7.90;99.90;;;;;;5010668;28;20033;-53
2021/12/16 04:46:21;;;;;;;31.35;17.20;;;7.90;99.90;;;;;;5011070;28;20030;-54
2021/12/16 04:48:51;;;;;;;36.83;17.55;;;7.90;99.90;;;;;;5009989;28;20029;-53
2021/12/16 04:51:18;;;;;;;43.58;18.63;;;7.90;99.90;;;;;;5010157;28;20041;-53
2021/12/16 04:53:44;;;;;;;37.58;18.02;;;7.90;99.90;;;;;;5010844;28;20040;-52
2021/12/16 04:56:12;;;;;;;44.92;18.58;;;7.90;99.90;;;;;;5010754;28;20030;-55
2021/12/16 04:58:39;;;;;;;40.42;18.23;;;7.90;99.90;;;;;;5008741;28;20033;-50
2021/12/16 05:01:05;;;;;;;38.88;17.85;;;7.90;99.90;;;;;;5002236;28;20102;-52
2021/12/16 05:03:31;;;;;;;35.78;16.65;;;7.90;99.90;;;;;;4991113;28;20097;-51
2021/12/16 05:05:57;;;;;;;46.22;20.17;;;7.90;99.90;;;;;;4991406;28;20451;-53
2021/12/16 05:08:23;;;;;;;32.80;18.88;;;7.90;99.90;;;;;;5008502;28;20132;-53
2021/12/16 05:10:51;;;;;;;40.22;18.90;;;7.90;99.90;;;;;;5011029;28;20034;-53
2021/12/16 05:13:20;;;;;;;37.55;17.55;;;7.90;99.90;;;;;;5010633;28;20109;-51
2021/12/16 05:15:46;;;;;;;38.45;17.90;;;7.90;99.90;;;;;;5010476;28;20030;-52
2021/12/16 05:18:19;;;;;;;42.25;18.23;;;7.90;99.90;;;;;;5010331;28;20497;-53
2021/12/16 05:20:46;;;;;;;36.78;17.88;;;7.90;99.90;;;;;;5010829;28;20504;-52
2021/12/16 05:24:16;;;;;;;53.33;18.48;;;8.00;99.90;;;;;;5010596;28;20042;-50
2021/12/16 05:28:37;;;;;;;42.85;16.88;;;8.00;99.90;;;;;;5009760;28;20068;-49
2021/12/16 05:31:04;;;;;;;32.50;16.23;;;7.90;99.90;;;;;;5009985;28;20453;-53
2021/12/16 05:33:29;;;;;;;37.17;15.70;;;7.90;99.90;;;;;;5010814;28;20041;-51
2021/12/16 05:35:57;;;;;;;31.83;16.05;;;8.00;99.90;;;;;;5010206;28;20464;-54
2021/12/16 05:38:25;;;;;;;28.10;14.32;;;8.00;99.90;;;;;;5010400;28;20026;-53
2021/12/16 05:40:51;;;;;;;32.63;16.27;;;8.00;99.90;;;;;;5010397;28;20026;-51
2021/12/16 05:43:18;;;;;;;34.78;14.30;;;8.00;99.90;;;;;;5005257;28;20022;-53
2021/12/16 05:45:46;;;;;;;26.58;14.07;;;8.00;99.90;;;;;;4990603;28;20057;-50
2021/12/16 05:48:15;;;;;;;26.00;13.88;;;8.00;99.90;;;;;;4990193;28;20041;-53
2021/12/16 05:50:45;;;;;;;32.33;14.18;;;8.00;99.90;;;;;;4990549;28;20027;-51
2021/12/16 05:53:11;;;;;;;31.00;13.77;;;8.00;99.90;;;;;;5009035;28;20034;-52
2021/12/16 05:55:37;;;;;;;27.00;13.75;;;8.00;99.90;;;;;;5009846;28;20481;-51
2021/12/16 05:58:06;;;;;;;31.75;12.45;;;8.10;99.90;;;;;;5009447;28;20036;-49
2021/12/16 06:00:37;;;;;;;29.33;13.25;;;8.00;99.90;;;;;;5009490;28;20484;-51
2021/12/16 06:03:03;;;;;;;32.40;15.25;;;8.00;99.90;;;;;;5009588;28;20018;-52
2021/12/16 06:05:29;;;;;;;27.15;12.85;;;8.00;99.90;;;;;;5009468;28;20085;-54
2021/12/16 06:07:54;;;;;;;24.23;12.65;;;8.00;99.90;;;;;;5009213;28;20026;-53
2021/12/16 06:12:55;;;;;;;29.47;12.87;;;8.10;99.90;;;;;;5009980;28;20109;-54
2021/12/16 06:15:38;;;;;;;17.67;10.82;;;8.10;99.90;;;;;;5009883;28;20114;-55
2021/12/16 06:29:17;;;;;;;26.20;11.27;;;8.10;99.90;;;;;;4986722;28;20566;-54
2021/12/16 06:31:43;;;;;;;27.45;11.57;;;8.10;99.90;;;;;;5003894;28;20045;-51
2021/12/16 06:34:08;;;;;;;22.35;11.55;;;8.10;99.90;;;;;;5009965;28;20042;-54
2021/12/16 06:36:34;;;;;;;25.17;11.77;;;8.10;99.90;;;;;;5009882;28;20475;-54
2021/12/16 06:39:00;;;;;;;24.98;12.35;;;8.10;99.90;;;;;;5009543;28;20030;-50
2021/12/16 06:41:28;;;;;;;23.67;10.55;;;8.10;99.90;;;;;;5009633;28;20544;-53
2021/12/16 06:43:56;;;;;;;23.50;11.27;;;8.20;99.90;;;;;;5009438;28;20030;-51
2021/12/16 06:46:30;;;;;;;25.00;11.57;;;8.20;99.90;;;;;;5009353;28;20378;-53
2021/12/16 06:48:59;;;;;;;22.42;11.65;;;8.20;99.90;;;;;;5009300;28;20101;-51
2021/12/16 06:51:36;;;;;;;20.85;11.35;;;8.20;99.90;;;;;;5009226;28;20025;-54
2021/12/16 06:54:06;;;;;;;19.90;10.85;;;8.20;99.90;;;;;;5009586;28;20116;-55
2021/12/16 06:56:44;;;;;;;21.95;10.43;;;8.20;99.90;;;;;;5009593;28;20030;-55
2021/12/16 06:59:21;;;;;;;21.55;10.65;;;8.20;99.90;;;;;;5009772;28;20026;-55
2021/12/16 07:02:01;;;;;;;26.95;12.13;;;8.20;99.90;;;;;;5009391;28;20054;-54
2021/12/16 07:04:28;;;;;;;23.35;12.57;;;8.20;99.90;;;;;;5009461;28;20037;-53
2021/12/16 07:06:53;;;;;;;31.83;12.27;;;8.20;99.90;;;;;;5008969;28;20065;-53
2021/12/16 07:09:20;;;;;;;19.83;11.52;;;8.20;99.90;;;;;;5008267;28;20081;-52
2021/12/16 07:11:56;;;;;;;27.65;12.20;;;8.20;99.90;;;;;;5007218;28;20053;-54
2021/12/16 07:14:33;;;;;;;23.80;12.10;;;8.20;99.90;;;;;;5008753;28;20046;-54
2021/12/16 07:16:59;;;;;;;31.08;12.27;;;8.30;99.90;;;;;;5009352;28;20034;-52
2021/12/16 07:19:24;;;;;;;26.60;12.50;;;8.30;99.90;;;;;;5008475;28;20480;-50
2021/12/16 07:21:50;;;;;;;24.17;12.00;;;8.30;99.90;;;;;;5010215;28;20057;-54
2021/12/16 07:24:18;;;;;;;23.90;12.70;;;8.30;99.90;;;;;;5012435;28;20022;-54
2021/12/16 07:26:44;;;;;;;33.42;14.07;;;8.30;99.90;;;;;;5012214;28;20109;-51
2021/12/16 07:29:10;;;;;;;23.80;12.13;;;8.30;99.90;;;;;;5011918;28;20026;-51
2021/12/16 07:31:37;;;;;;;29.02;12.70;;;8.30;99.90;;;;;;5011868;28;20034;-52
2021/12/16 07:34:04;;;;;;;25.40;12.05;;;8.30;99.90;;;;;;5012224;28;20026;-51
2021/12/16 07:36:31;;;;;;;27.15;12.32;;;8.30;99.90;;;;;;5012577;28;20026;-54
2021/12/16 07:38:57;;;;;;;33.38;13.48;;;8.30;99.90;;;;;;5012027;28;20157;-53
2021/12/16 07:41:31;;;;;;;34.10;12.73;;;8.30;99.90;;;;;;5011336;28;20037;-53
2021/12/16 07:44:17;;;;;;;31.80;13.05;;;8.30;99.90;;;;;;5012496;28;20488;-53
2021/12/16 07:46:48;;;;;;;25.97;11.83;;;8.30;99.90;;;;;;5011553;28;20042;-54
2021/12/16 07:49:18;;;;;;;23.17;11.00;;;8.30;99.90;;;;;;5010441;28;20281;-50
2021/12/16 07:51:45;;;;;;;23.98;10.50;;;8.30;99.90;;;;;;5011677;28;20033;-51
2021/12/16 07:54:13;;;;;;;21.35;11.68;;;8.30;99.90;;;;;;5009464;28;20246;-54
2021/12/16 07:56:41;;;;;;;20.35;10.57;;;8.30;99.90;;;;;;5011162;28;20044;-54
2021/12/16 07:59:08;;;;;;;22.23;10.85;;;8.30;99.90;;;;;;5012401;28;20302;-54
2021/12/16 08:01:35;;;;;;;19.08;9.80;;;8.30;99.90;;;;;;5011989;28;20100;-51
2021/12/16 08:04:01;;;;;;;15.15;9.82;;;8.40;99.90;;;;;;5011842;28;20022;-52
2021/12/16 08:06:28;;;;;;;18.63;9.43;;;8.40;99.90;;;;;;5011927;28;20408;-53
2021/12/16 08:08:58;;;;;;;14.70;9.02;;;8.30;99.90;;;;;;5011479;28;20623;-52
2021/12/16 08:11:27;;;;;;;16.67;9.40;;;8.40;99.90;;;;;;5010720;28;20297;-55
2021/12/16 08:13:53;;;;;;;20.50;9.52;;;8.30;99.90;;;;;;5012118;28;20083;-52
2021/12/16 08:16:22;;;;;;;16.73;8.85;;;8.30;99.90;;;;;;5011886;28;20034;-51
2021/12/16 08:18:49;;;;;;;15.68;8.18;;;8.30;99.90;;;;;;5011379;28;20026;-54
2021/12/16 08:21:15;;;;;;;12.95;8.45;;;8.30;99.90;;;;;;5011854;28;20026;-51
2021/12/16 08:23:40;;;;;;;13.88;7.40;;;8.30;99.90;;;;;;5011653;28;20025;-54
2021/12/16 08:26:06;;;;;;;14.82;7.53;;;8.30;99.90;;;;;;5011445;28;20025;-54
2021/12/16 08:28:33;;;;;;;12.93;7.68;;;8.30;99.90;;;;;;5011139;28;20030;-53
2021/12/16 08:30:58;;;;;;;13.55;6.90;;;8.30;99.90;;;;;;5011359;28;20021;-54
2021/12/16 08:33:24;;;;;;;11.77;6.93;;;8.30;99.90;;;;;;5010957;28;20080;-51
2021/12/16 08:35:53;;;;;;;11.50;6.70;;;8.30;99.90;;;;;;5011065;28;20281;-53
2021/12/16 08:38:21;;;;;;;12.13;7.28;;;8.30;99.90;;;;;;5010939;28;20121;-53
2021/12/16 08:40:51;;;;;;;12.90;7.03;;;8.30;99.90;;;;;;5010955;28;20057;-53
2021/12/16 08:43:17;;;;;;;14.68;6.97;;;8.30;99.90;;;;;;5010801;28;20116;-54
2021/12/16 08:45:44;;;;;;;15.40;7.57;;;8.30;99.90;;;;;;5009814;28;20026;-54
2021/12/16 08:48:11;;;;;;;12.25;7.38;;;8.30;99.90;;;;;;5010349;28;20021;-51
2021/12/16 08:50:39;;;;;;;9.25;7.53;;;8.30;99.90;;;;;;5009533;28;20048;-51
2021/12/16 08:53:07;;;;;;;13.15;7.80;;;8.30;99.90;;;;;;5010669;28;20488;-51
2021/12/16 08:55:33;;;;;;;10.30;7.57;;;8.30;99.90;;;;;;5011072;28;20069;-51
2021/12/16 08:58:00;;;;;;;13.57;7.65;;;8.30;99.90;;;;;;5010436;28;20045;-52
2021/12/16 09:00:29;;;;;;;14.80;7.18;;;8.30;99.90;;;;;;5011029;28;20100;-52
2021/12/16 09:02:55;;;;;;;18.35;7.78;;;8.20;99.90;;;;;;5008875;28;20029;-51
2021/12/16 09:05:22;;;;;;;19.33;8.23;;;8.30;99.90;;;;;;5010748;28;20498;-51
2021/12/16 09:07:48;;;;;;;12.10;7.45;;;8.30;99.90;;;;;;5010162;28;20075;-52
2021/12/16 09:10:25;;;;;;;11.63;7.53;;;8.30;99.90;;;;;;5010508;28;20033;-54
2021/12/16 09:13:00;;;;;;;11.00;6.93;;;8.30;99.90;;;;;;5010411;28;20484;-53
2021/12/16 09:15:28;;;;;;;15.73;7.82;;;8.20;99.90;;;;;;5010646;28;20041;-55
2021/12/16 09:17:54;;;;;;;16.67;7.05;;;8.30;99.90;;;;;;5010058;28;20420;-50
2021/12/16 09:20:20;;;;;;;13.98;7.38;;;8.20;99.90;;;;;;5010337;28;20036;-53
2021/12/16 09:22:46;;;;;;;20.90;7.82;;;8.30;99.90;;;;;;5010187;28;20034;-51
2021/12/16 09:25:13;;;;;;;11.93;7.55;;;8.40;99.90;;;;;;5010185;28;20033;-54
2021/12/16 09:27:40;;;;;;;16.52;7.18;;;8.40;99.90;;;;;;5009966;28;20026;-51
2021/12/16 09:30:08;;;;;;;12.15;7.53;;;8.50;99.90;;;;;;5009007;28;20447;-53
2021/12/16 09:32:34;;;;;;;13.00;6.82;;;8.60;99.90;;;;;;5009742;28;20310;-54
2021/12/16 09:35:00;;;;;;;17.10;6.40;;;8.60;99.90;;;;;;5010265;28;20030;-52
2021/12/16 09:37:26;;;;;;;15.77;7.35;;;8.70;99.90;;;;;;5009646;28;20504;-52
2021/12/16 09:39:52;;;;;;;13.18;6.07;;;8.70;99.90;;;;;;5009850;28;20038;-50
2021/12/16 09:42:18;;;;;;;8.98;5.07;;;8.70;99.90;;;;;;5010111;28;20026;-53
2021/12/16 09:44:43;;;;;;;12.25;6.18;;;8.80;99.90;;;;;;5009456;28;20493;-54
2021/12/16 09:47:12;;;;;;;16.25;7.18;;;8.80;99.90;;;;;;5010025;28;20056;-53
2021/12/16 09:49:38;;;;;;;11.60;6.03;;;8.80;99.90;;;;;;5010358;28;20435;-54
2021/12/16 09:52:07;;;;;;;11.70;5.30;;;8.80;99.90;;;;;;5009958;28;20037;-53
2021/12/16 09:54:34;;;;;;;10.07;5.43;;;8.80;99.90;;;;;;5009975;28;20037;-50
2021/12/16 09:57:00;;;;;;;9.70;6.10;;;8.80;99.90;;;;;;5009978;28;20033;-53
2021/12/16 09:59:28;;;;;;;11.93;5.55;;;8.90;99.90;;;;;;5009638;28;20037;-55
2021/12/16 10:01:58;;;;;;;9.90;5.15;;;8.90;99.90;;;;;;5009595;28;20046;-53
2021/12/16 10:04:31;;;;;;;13.10;5.28;;;8.90;99.90;;;;;;5010378;28;20104;-50
2021/12/16 10:06:59;;;;;;;14.90;5.20;;;8.90;99.90;;;;;;5009645;28;20117;-51
2021/12/16 10:09:27;;;;;;;11.40;5.22;;;8.90;99.90;;;;;;5009231;28;20034;-53
2021/12/16 10:11:55;;;;;;;14.10;7.38;;;8.90;99.90;;;;;;5008936;28;20030;-51
2021/12/16 10:19:41;;;;;;;8.68;4.25;;;8.90;99.90;;;;;;5010073;28;20246;-51
2021/12/16 10:22:15;;;;;;;6.53;3.67;;;8.80;99.90;;;;;;5009824;28;20097;-52
2021/12/16 10:24:41;;;;;;;7.88;4.03;;;8.80;99.90;;;;;;5008443;28;20500;-54
2021/12/16 10:27:18;;;;;;;8.20;3.55;;;8.90;99.90;;;;;;5001538;28;20060;-52
2021/12/16 10:29:48;;;;;;;8.00;4.10;;;8.90;99.90;;;;;;5007671;28;20034;-53
2021/12/16 10:32:35;;;;;;;8.40;3.65;;;8.90;99.90;;;;;;5008723;28;20062;-50
2021/12/16 10:35:03;;;;;;;;;;;8.90;99.90;;;;;;5009469;28;20022;-49
2021/12/16 10:37:31;;;;;;;7.45;3.30;;;9.00;99.90;;;;;;5008862;28;19979;-56
2021/12/16 10:40:28;;;;;;;6.38;3.28;;;9.00;99.90;;;;;;5009666;28;20018;-50
2021/12/16 10:42:57;;;;;;;15.70;4.38;;;9.00;99.90;;;;;;5009596;28;20029;-53
2021/12/16 10:45:28;;;;;;;8.55;3.45;;;9.00;99.90;;;;;;5009972;28;20048;-52
2021/12/16 10:48:21;;;;;;;10.73;4.47;;;9.00;99.90;;;;;;5009244;28;20229;-53
2021/12/16 10:50:48;;;;;;;14.80;4.30;;;9.10;99.90;;;;;;5009586;28;20030;-51
2021/12/16 10:53:13;;;;;;;11.13;4.20;;;9.00;99.90;;;;;;5009886;28;20026;-55
2021/12/16 10:55:59;;;;;;;10.93;4.03;;;9.10;99.90;;;;;;5010797;28;20511;-52
2021/12/16 10:58:52;;;;;;;12.85;4.72;;;9.10;99.90;;;;;;5013245;28;20105;-52
2021/12/16 11:01:39;;;;;;;14.20;4.30;;;9.10;99.90;;;;;;5013146;28;20057;-52
2021/12/16 11:04:08;;;;;;;12.20;4.78;;;9.10;99.90;;;;;;5013397;28;20022;-53
2021/12/16 11:07:03;;;;;;;9.25;4.93;;;9.00;99.90;;;;;;5013096;28;20037;-53
2021/12/16 11:09:37;;;;;;;9.07;4.82;;;9.00;99.90;;;;;;5012709;28;20562;-50
2021/12/16 11:12:06;;;;;;;8.55;4.45;;;9.00;99.90;;;;;;5013068;28;20036;-54
2021/12/16 11:14:32;;;;;;;13.40;6.28;;;9.00;99.90;;;;;;5013027;28;20484;-52
2021/12/16 11:17:00;;;;;;;13.45;6.53;;;9.00;99.90;;;;;;5012982;28;20088;-52
2021/12/16 11:19:39;;;;;;;12.13;6.28;;;9.00;99.90;;;;;;5012624;28;20447;-55
2021/12/16 11:22:06;;;;;;;11.50;6.18;;;9.00;99.90;;;;;;5012733;28;20033;-54
2021/12/16 11:24:32;;;;;;;15.35;7.15;;;9.00;99.90;;;;;;5016592;28;20021;-51
2021/12/16 11:26:57;;;;;;;13.73;6.85;;;9.00;99.90;;;;;;5023803;28;20506;-49
2021/12/16 11:29:30;;;;;;;15.48;7.38;;;9.00;99.90;;;;;;5031881;28;20037;-52
2021/12/16 11:31:56;;;;;;;16.15;6.95;;;9.00;99.90;;;;;;5012344;28;20041;-54
2021/12/16 11:34:22;;;;;;;13.88;8.43;;;9.00;99.90;;;;;;5021318;28;20030;-52
2021/12/16 11:36:53;;;;;;;15.88;7.78;;;9.00;99.90;;;;;;5016941;28;20510;-51
2021/12/16 11:39:24;;;;;;;14.90;7.63;;;9.00;99.90;;;;;;5011689;28;20204;-51
2021/12/16 11:41:50;;;;;;;11.90;5.95;;;9.00;99.90;;;;;;5011759;28;20095;-53
2021/12/16 11:44:18;;;;;;;18.38;7.20;;;9.10;99.90;;;;;;5012221;28;20041;-52
2021/12/16 11:46:45;;;;;;;13.65;6.55;;;9.10;99.90;;;;;;5012499;28;20041;-51
2021/12/16 11:49:21;;;;;;;14.57;6.22;;;9.10;99.90;;;;;;5011656;28;20071;-51
2021/12/16 11:51:56;;;;;;;22.07;6.90;;;9.10;99.90;;;;;;5009321;28;20439;-51
2021/12/16 11:54:26;;;;;;;17.05;7.15;;;9.10;99.90;;;;;;5011652;28;20124;-50
2021/12/16 11:57:06;;;;;;;15.07;5.53;;;9.20;99.90;;;;;;5011407;28;20021;-50
2021/12/16 11:59:50;;;;;;;13.68;4.75;;;9.20;99.90;;;;;;5011336;28;20034;-51
2021/12/16 12:02:36;;;;;;;12.80;4.30;;;9.30;99.90;;;;;;5010172;28;20036;-51
2021/12/16 12:05:53;;;;;;;12.82;3.53;;;9.30;99.90;;;;;;5011149;28;20419;-51
2021/12/16 12:08:27;;;;;;;14.90;4.50;;;9.20;99.90;;;;;;4997144;28;20393;-54
2021/12/16 12:11:16;;;;;;;8.70;3.10;;;9.20;99.90;;;;;;5011594;28;20022;-51
2021/12/16 12:13:45;;;;;;;15.45;4.43;;;9.20;99.90;;;;;;5017836;28;20030;-52
2021/12/16 12:16:18;;;;;;;11.90;3.42;;;9.20;99.90;;;;;;5012138;28;20030;-51
2021/12/16 12:18:45;;;;;;;10.05;3.15;;;9.10;99.90;;;;;;5029160;28;20433;-54
2021/12/16 12:21:29;;;;;;;10.23;3.20;;;9.10;99.90;;;;;;5012008;28;20038;-51
2021/12/16 12:24:06;;;;;;;11.93;3.50;;;9.10;99.90;;;;;;4992147;28;20096;-51
2021/12/16 12:26:39;;;;;;;9.93;3.13;;;9.10;99.90;;;;;;4998054;28;20022;-54
2021/12/16 12:29:16;;;;;;;9.98;3.10;;;9.10;99.90;;;;;;5009705;28;20084;-52
2021/12/16 12:31:45;;;;;;;16.55;3.92;;;9.00;99.90;;;;;;5009892;28;20030;-52
2021/12/16 12:34:13;;;;;;;12.25;3.40;;;9.00;99.90;;;;;;5018485;28;20398;-51
2021/12/16 12:36:40;;;;;;;9.88;2.85;;;8.90;99.90;;;;;;5030828;28;20026;-54
2021/12/16 12:39:09;;;;;;;27.45;10.43;;;8.90;99.90;;;;;;5014133;28;20074;-55
2021/12/16 12:41:34;;;;;;;23.85;10.60;;;8.90;99.90;;;;;;5005567;28;20168;-54
2021/12/16 12:44:04;;;;;;;13.57;6.03;;;8.90;99.90;;;;;;5010714;28;20100;-55
2021/12/16 12:46:34;;;;;;;9.77;3.55;;;9.00;99.90;;;;;;5010555;28;20033;-53
2021/12/16 12:49:05;;;;;;;17.50;3.88;;;9.00;99.90;;;;;;5008519;28;20504;-55
2021/12/16 12:51:35;;;;;;;16.33;3.60;;;9.00;99.90;;;;;;5010650;28;20033;-54
2021/12/16 12:54:24;;;;;;;15.63;2.80;;;9.00;99.90;;;;;;5007998;28;20032;-54
2021/12/16 12:56:52;;;;;;;13.68;3.80;;;9.00;99.90;;;;;;5010246;28;20025;-51
2021/12/16 12:59:18;;;;;;;11.50;4.60;;;9.10;99.90;;;;;;5009587;28;20024;-52
2021/12/16 13:01:53;;;;;;;13.05;5.63;;;9.10;99.90;;;;;;5007356;28;20551;-54
2021/12/16 13:04:31;;;;;;;13.02;5.13;;;9.10;99.90;;;;;;5007925;28;20500;-51
2021/12/16 13:07:03;;;;;;;11.23;4.30;;;9.10;99.90;;;;;;5009275;28;20029;-53
2021/12/16 13:09:34;;;;;;;12.85;3.67;;;9.10;99.90;;;;;;5009301;28;20281;-52
2021/12/16 13:12:03;;;;;;;7.30;3.20;;;9.20;99.90;;;;;;5006382;28;20018;-52
2021/12/16 13:14:44;;;;;;;13.30;3.17;;;9.20;99.90;;;;;;5007679;28;20411;-51
2021/12/16 13:23:21;;;;;;;8.30;2.92;;;9.10;99.90;;;;;;5010152;28;20030;-55
2021/12/16 13:26:06;;;;;;;13.95;3.22;;;9.00;99.90;;;;;;5006778;28;20041;-51
2021/12/16 13:31:31;;;;;;;10.80;2.95;;;8.90;99.90;;;;;;5008029;28;20018;-51
2021/12/16 13:33:59;;;;;;;7.15;2.88;;;8.80;99.90;;;;;;5008277;28;20021;-52
2021/12/16 13:36:42;;;;;;;10.95;2.90;;;8.80;99.90;;;;;;5008860;28;20030;-50
2021/12/16 13:39:10;;;;;;;8.77;2.40;;;8.80;99.90;;;;;;5008531;28;20018;-51
2021/12/16 13:41:51;;;;;;;13.90;2.85;;;8.70;99.90;;;;;;5009701;28;20101;-53
2021/12/16 13:44:17;;;;;;;11.65;3.83;;;8.70;99.90;;;;;;5008459;28;20022;-53
2021/12/16 13:47:05;;;;;;;7.57;2.20;;;8.70;99.90;;;;;;5008886;28;20028;-53
2021/12/16 14:06:15;;;;;;;6.88;2.90;;;8.60;99.90;;;;;;5009316;28;20088;-54
2021/12/16 14:08:49;;;;;;;9.60;3.05;;;8.70;99.90;;;;;;5008441;28;20480;-52
2021/12/16 14:14:30;;;;;;;10.77;2.67;;;8.70;99.90;;;;;;5007144;28;20041;-54
2021/12/16 14:17:09;;;;;;;15.60;4.00;;;8.70;99.90;;;;;;5007802;28;20029;-53
2021/12/16 14:42:04;;;;;;;12.60;3.83;;;8.20;99.90;;;;;;5012051;28;20397;-51
2021/12/16 14:49:51;;;;;;;11.88;4.00;;;8.20;99.90;;;;;;5011214;28;20507;-52
2021/12/16 14:52:25;;;;;;;12.82;3.78;;;8.10;99.90;;;;;;5007529;28;20121;-53
2021/12/16 14:55:05;;;;;;;13.55;3.28;;;8.10;99.90;;;;;;5009941;28;20117;-52
2021/12/16 14:57:36;;;;;;;13.93;3.72;;;8.00;99.90;;;;;;5010942;28;20026;-51
2021/12/16 15:00:10;;;;;;;14.45;3.08;;;8.00;99.90;;;;;;5012456;28;20487;-53
2021/12/16 15:02:38;;;;;;;9.70;3.20;;;8.00;99.90;;;;;;5005072;28;20041;-52
2021/12/16 15:05:28;;;;;;;10.82;3.00;;;8.00;99.90;;;;;;5012228;28;20025;-51
2021/12/16 15:07:55;;;;;;;11.32;3.03;;;8.00;99.90;;;;;;5003767;28;20026;-53
2021/12/16 15:10:22;;;;;;;14.80;3.50;;;8.00;99.90;;;;;;5011632;28;20500;-51
2021/12/16 15:13:00;;;;;;;11.35;3.35;;;8.00;99.90;;;;;;5011535;28;20531;-52
2021/12/16 15:15:44;;;;;;;9.15;3.78;;;8.00;99.90;;;;;;5003055;28;20033;-56
2021/12/16 15:37:30;;;;;;;10.65;4.40;;;7.90;99.90;;;;;;5012193;28;20465;-52
2021/12/16 15:40:13;;;;;;;5.85;3.15;;;7.80;99.90;;;;;;5010015;28;20040;-52
2021/12/16 15:42:54;;;;;;;12.43;4.40;;;7.80;99.90;;;;;;5009940;28;20541;-54
2021/12/16 15:45:33;;;;;;;10.70;3.95;;;7.80;99.90;;;;;;5002565;28;20054;-52
2021/12/16 15:48:04;;;;;;;16.17;5.70;;;7.70;99.90;;;;;;5008099;28;20034;-51
2021/12/16 15:50:42;;;;;;;7.72;4.45;;;7.70;99.90;;;;;;5010426;28;20033;-51
2021/12/16 15:53:11;;;;;;;12.30;4.95;;;7.70;99.90;;;;;;5010935;28;20514;-51
2021/12/16 15:55:48;;;;;;;11.00;4.82;;;7.60;99.90;;;;;;5010715;28;20034;-54
2021/12/16 15:58:20;;;;;;;9.68;4.88;;;7.60;99.90;;;;;;5011616;28;20107;-51
2021/12/16 16:00:49;;;;;;;12.57;4.82;;;7.60;99.90;;;;;;5011743;28;20022;-51
2021/12/16 16:03:16;;;;;;;10.60;4.72;;;7.50;99.90;;;;;;5011828;28;20049;-51
2021/12/16 16:05:46;;;;;;;8.60;4.15;;;7.50;99.90;;;;;;5010930;28;20116;-54
2021/12/16 16:08:15;;;;;;;14.82;5.53;;;7.50;99.90;;;;;;5011484;28;20026;-57
2021/12/16 16:10:43;;;;;;;12.63;5.07;;;7.50;99.90;;;;;;5011437;28;20025;-53
2021/12/16 16:13:17;;;;;;;10.80;5.68;;;7.50;99.90;;;;;;5011056;28;20499;-53
2021/12/16 16:15:44;;;;;;;10.45;5.28;;;7.50;99.90;;;;;;5009911;28;20088;-52
2021/12/16 16:18:34;;;;;;;17.13;5.93;;;7.40;99.90;;;;;;5011013;28;20026;-51
2021/12/16 16:21:03;;;;;;;14.48;6.35;;;7.40;99.90;;;;;;5010881;28;20041;-53
2021/12/16 16:23:30;;;;;;;14.93;6.65;;;7.40;99.90;;;;;;5010982;28;20026;-51
2021/12/16 16:25:57;;;;;;;15.27;7.47;;;7.40;99.90;;;;;;5011130;28;20395;-52
2021/12/16 16:28:26;;;;;;;10.25;6.00;;;7.30;99.90;;;;;;5010149;28;20034;-51
2021/12/16 16:30:53;;;;;;;11.25;5.15;;;7.30;99.90;;;;;;5011119;28;20524;-52
2021/12/16 16:33:23;;;;;;;15.20;6.25;;;7.30;99.90;;;;;;5010552;28;20046;-51
2021/12/16 16:36:00;;;;;;;11.48;5.93;;;7.30;99.90;;;;;;5010783;28;20380;-51
2021/12/16 16:38:31;;;;;;;13.77;6.50;;;7.30;99.90;;;;;;5010912;28;20034;-53
2021/12/16 16:40:59;;;;;;;12.48;5.57;;;7.20;99.90;;;;;;5009567;28;20033;-50
2021/12/16 16:43:34;;;;;;;14.48;5.47;;;7.20;99.90;;;;;;4998301;28;20030;-52
2021/12/16 16:46:22;;;;;;;9.95;4.82;;;7.20;99.90;;;;;;4991275;28;20019;-51
2021/12/16 16:51:38;;;;;;;10.52;5.50;;;7.20;99.90;;;;;;4990812;28;20036;-51
2021/12/16 16:54:31;;;;;;;12.68;5.47;;;7.20;99.90;;;;;;4990175;28;20023;-53
2021/12/16 16:57:21;;;;;;;15.98;5.85;;;7.20;99.90;;;;;;4990954;28;20232;-54